< < Back
Terminal Aerodrome Forecast


Current Version              Previous Versions:   1  2  3  4  5  6  7  8  9  

Terminal Aerodrome Forecast

231
FTUS42 KFFC 061735
TAFFTY
TAF
KFTY 061735Z 0618/0718 06007KT P6SM BKN150 BKN250
     FM070000 35005KT P6SM SCT120 SCT250
     FM071500 33011KT P6SM SKC=

Latest METAR

657
SAUS70 KWBC 071000 RRC
MTRFTY
METAR KFTY 070953Z 00000KT 10SM CLR M03/M07 A3015 RMK AO2 SLP212
T10281067


USA.gov is the U.S. government's official web portal to all federal, state and local government web resources and services.